Tiempo atmosférico en la estación meteorológica de Villanueva De Los Infantes, Ciudad Real (870 m.)



Fecha
DESCASC
Temp. máxima en grados centígrados (hora)
DESCASC
Temp. mínima en grados centígrados (hora)
DESCASC
Temp. media en grados centígrados
DESCASC
Racha de viento máxima en m/sg (hora)
DESCASC
Velocidad máxima media en intervalos de 10 minutos(hora)
DESCASC
Precipitaciones diarias en mm
DESCASC
Precipitaciones de 00:00 a 06:00 en mm
DESCASC
Precipitaciones de 06:00 a 12:00 en mm
DESCASC
Precipitaciones de 12:00 a 18:00 en mm
DESCASC
Precipitaciones de 18:00 a 24:00 en mm
DESCASC
20-07-2019 37.5 (17:30) 21.1 (00:00) 29.3 8.33 (05:00) 6.11 (05:00) 0 0 0 0 0
17-08-2019 37.2 (18:10) 19.4 (00:00) 28.3 9.72 (14:40) 5.28 (18:30) 0 0 0 0 0
16-08-2019 36.2 (18:40) 19.4 (00:00) 27.8 10 (14:30) 5.83 (14:30) 0 0 0 0 0
10-08-2019 34.7 (17:20) 18.6 (00:00) 26.7 12.78 (16:50) 7.5 (18:10) 0 0 0 0 0
09-08-2019 35 (17:50) 17.2 (00:00) 26.1 12.78 (18:30) 7.22 (19:10) 0 0 0 0 0
19-07-2019 37.3 (19:10) 20.4 (00:00) 28.8 7.78 (17:20) 5 (23:20) 0 0 0 0 0
21-07-2019 38.9 (16:10) 22 (00:00) 30.5 11.11 (19:40) 6.67 (20:00) 0 0 0 0 0
22-07-2019 39.8 (16:10) 19.9 (00:00) 29.8 10.83 (18:40) 5.83 (20:00) 0 0 0 0 0
23-07-2019 -- (--) -- (--) -- -- (--) -- (--) -- 0 0 0 --
05-08-2019 -- (--) -- (--) -- -- (--) -- (--) -- -- -- -- --
15-08-2019 -- (--) -- (--) -- -- (--) -- (--) -- -- 0 0 0
14-08-2019 -- (--) -- (--) -- -- (--) -- (--) -- -- -- 0 0
13-08-2019 -- (--) -- (--) -- -- (--) -- (--) -- -- -- -- --
12-08-2019 -- (--) -- (--) -- -- (--) -- (--) -- -- -- -- --
11-08-2019 -- (--) -- (--) -- -- (--) -- (--) -- -- -- -- --
08-08-2019 -- (--) -- (--) -- -- (--) -- (--) -- -- 0 0 0
07-08-2019 -- (--) -- (--) -- -- (--) -- (--) -- -- -- -- --
06-08-2019 -- (--) -- (--) -- -- (--) -- (--) -- -- -- -- --
24-07-2019 -- (--) -- (--) -- -- (--) -- (--) -- -- -- -- --
04-08-2019 -- (--) -- (--) -- -- (--) -- (--) -- -- -- -- --
03-08-2019 -- (--) -- (--) -- -- (--) -- (--) -- -- -- -- --
02-08-2019 -- (--) -- (--) -- -- (--) -- (--) -- -- -- -- --
01-08-2019 -- (--) -- (--) -- -- (--) -- (--) -- -- -- -- --
31-07-2019 -- (--) -- (--) -- -- (--) -- (--) -- -- -- -- --
30-07-2019 -- (--) -- (--) -- -- (--) -- (--) -- -- -- -- --
29-07-2019 -- (--) -- (--) -- -- (--) -- (--) -- -- -- -- --
28-07-2019 -- (--) -- (--) -- -- (--) -- (--) -- -- -- -- --
27-07-2019 -- (--) -- (--) -- -- (--) -- (--) -- -- -- -- --
26-07-2019 -- (--) -- (--) -- -- (--) -- (--) -- -- -- -- --
25-07-2019 -- (--) -- (--) -- -- (--) -- (--) -- -- -- -- --

Gráficas

Temp. máximas Temp. mínimas Temp. medias Precipitaciones Rachas de viento máximas Velocidades máximas media en intervalos de 10 minutos

Datos horarios

Fecha y hora oficial Temperatura (ºC) Velocidad del viento (km/h) Dirección del viento Racha (km/h) Dirección de racha Precipitación (mm) Presión (hPa) Tendencia (hPa) Humedad (%)
2019-08-17 23:00:00 28.9 12 Oeste 18 Sudoeste 0 -- -- 24
2019-08-17 22:00:00 30.1 12 Sudoeste 17 Sudoeste 0 -- -- 24
2019-08-17 21:00:00 32.9 10 Sudoeste 24 Oeste 0 -- -- 21
2019-08-17 20:00:00 35.3 17 Sudoeste 28 Sudoeste 0 -- -- 18
2019-08-17 19:00:00 36.6 12 Sudoeste 32 Sudoeste 0 -- -- 17
2019-08-17 18:00:00 37 11 Sudoeste 31 Oeste 0 -- -- 16
2019-08-17 17:00:00 36.4 17 Oeste 30 Sudoeste 0 -- -- 18
2019-08-17 16:00:00 36.4 18 Oeste 32 Sudoeste 0 -- -- 19
2019-08-17 15:00:00 35.9 13 Oeste 35 Sudoeste 0 -- -- 20
2019-08-17 14:00:00 35.2 15 Sudoeste 32 Sur 0 -- -- 23
2019-08-17 13:00:00 34 9 Sudoeste 23 Sudoeste 0 -- -- 25
2019-08-17 12:00:00 32.1 9 Sudoeste 22 Sudoeste 0 -- -- 27
2019-08-17 11:00:00 28.9 12 Sudoeste 21 Sur 0 -- -- 34
2019-08-17 10:00:00 26.1 10 Sudoeste 22 Sur 0 -- -- 39
2019-08-17 09:00:00 23 6 Sur 15 Sur 0 -- -- 44
2019-08-17 08:00:00 19.9 11 Sur 15 Sudeste 0 -- -- 49
2019-08-17 07:00:00 19.6 6 Sur 11 Sudeste 0 -- -- 49
2019-08-17 06:00:00 20 8 Sur 14 Sur 0 -- -- 46
2019-08-17 05:00:00 21.2 9 Sur 18 Sur 0 -- -- 42
2019-08-17 04:00:00 22.2 13 Sur 17 Sur 0 -- -- 37
2019-08-17 03:00:00 22.4 7 Sur 13 Sur 0 -- -- 35
2019-08-17 02:00:00 23.8 7 Sur 11 Sur 0 -- -- 32
2019-08-17 01:00:00 26.4 7 Sur 16 Oeste 0 -- -- 30
2019-08-17 00:00:00 27.1 9 Oeste 17 Oeste 0 -- -- 29
2019-08-16 23:00:00 28.2 11 Sudoeste 18 Sudoeste 0 -- -- 27
2019-08-16 22:00:00 29.7 13 Sudoeste 24 Sudoeste 0 -- -- 26
2019-08-16 21:00:00 32.3 13 Sudoeste 22 Oeste 0 -- -- 24
2019-08-16 20:00:00 34 10 Oeste 27 Sudoeste 0 -- -- 23
2019-08-16 19:00:00 34.9 14 Oeste 31 Sudoeste 0 -- -- 21
2019-08-16 18:00:00 35.2 6 Oeste 35 Oeste 0 -- -- 21
2019-08-16 17:00:00 36.1 7 Noroeste 33 Oeste 0 -- -- 21
2019-08-16 16:00:00 34.5 12 Oeste 30 Sudoeste 0 -- -- 24
2019-08-16 15:00:00 34.5 10 Noroeste 36 Sudoeste 0 -- -- 24
2019-08-16 14:00:00 34.4 10 Oeste 29 Sudoeste 0 -- -- 24
2019-08-16 13:00:00 33.1 10 Oeste 23 Sudoeste 0 -- -- 27
2019-08-16 12:00:00 31.2 13 Sudoeste 28 Sudoeste 0 -- -- 30
2019-08-16 11:00:00 28.2 15 Sudoeste 29 Sur 0 -- -- 37
2019-08-16 10:00:00 25.2 15 Sur 27 Sur 0 -- -- 43
2019-08-16 09:00:00 22.9 18 Sur 26 Sur 0 -- -- 47
2019-08-16 08:00:00 19.8 5 Sur 14 Sur 0 -- -- 53
2019-08-16 07:00:00 19.8 6 Sur 24 Sur 0 -- -- 50
2019-08-16 06:00:00 20.5 13 Sur 23 Sur 0 -- -- 44
2019-08-16 05:00:00 20.9 13 Sur 20 Sur 0 -- -- 40
2019-08-16 04:00:00 21.3 8 Sur 14 Sur 0 -- -- 34
2019-08-16 03:00:00 22.3 6 Sur 13 Sur 0 -- -- 32
2019-08-16 02:00:00 23.9 6 Sur 9 Sur 0 -- -- 29
2019-08-16 01:00:00 24.5 5 Sudeste 10 Sudeste 0 -- -- 29
2019-08-16 00:00:00 24.9 8 Sur 15 Este 0 -- -- 25
2019-08-15 23:00:00 27.2 11 Este 14 Este 0 -- -- 24
2019-08-15 22:00:00 27.3 10 Nordeste 12 Nordeste 0 -- -- 23
2019-08-15 21:00:00 30.8 10 Norte 20 Norte 0 -- -- 21
2019-08-15 20:00:00 33.1 9 Norte 24 Noroeste 0 -- -- 19
2019-08-15 19:00:00 34.6 12 Noroeste 23 Noroeste 0 -- -- 18
2019-08-15 18:00:00 34.8 13 Noroeste 24 Noroeste 0 -- -- 17
2019-08-15 17:00:00 35.4 7 Oeste 22 Oeste 0 -- -- 17
2019-08-15 16:00:00 34.7 9 Oeste 26 Oeste 0 -- -- 17
2019-08-15 15:00:00 33.5 8 Norte 25 Noroeste 0 -- -- 18
2019-08-15 14:00:00 32.9 11 Noroeste 24 Noroeste 0 -- -- 18
2019-08-15 13:00:00 32.2 12 Oeste 24 Sudoeste 0 -- -- 20
2019-08-15 12:00:00 30.3 14 Sudoeste 23 Sudoeste 0 -- -- 26
2019-08-15 11:00:00 27.5 11 Sudoeste 19 Sudoeste 0 -- -- 31
2019-08-15 10:00:00 24.7 9 Sur 21 Sur 0 -- -- 40
2019-08-15 09:00:00 22.2 6 Sur 12 Sur 0 -- -- 43
2019-08-15 08:00:00 19.1 7 Sur 12 Sur 0 -- -- 43
2019-08-15 07:00:00 18.2 6 Sur 10 Sur 0 -- -- 40
2019-08-15 06:00:00 18.8 4 Sur 8 Sur 0 -- -- 36
2019-08-15 05:00:00 19.7 4 Sur 14 Sudeste 0 -- -- 35
2019-08-15 04:00:00 -- -- -- -- -- -- -- -- --
2019-08-15 03:00:00 20.3 10 Sur 14 Sudeste 0 -- -- 34
2019-08-15 02:00:00 21.8 6 Sudeste 12 Sur 0 -- -- 30
2019-08-15 01:00:00 21.3 8 Sudeste 10 Este 0 -- -- 30
2019-08-15 00:00:00 21.6 5 Sudeste 12 Sudeste 0 -- -- 28
2019-08-14 23:00:00 23.4 6 Sur 18 Este 0 -- -- 26
2019-08-14 22:00:00 25.5 11 Este 13 Este 0 -- -- 23
2019-08-14 21:00:00 26.3 9 Nordeste 10 Norte 0 -- -- 22
2019-08-14 20:00:00 29.1 7 Norte 13 Norte 0 -- -- 20
2019-08-14 19:00:00 31.7 8 Norte 18 Noroeste 0 -- -- 18
2019-08-14 18:00:00 32.9 13 Noroeste 27 Noroeste 0 -- -- 17
2019-08-14 17:00:00 33 11 Noroeste 25 Oeste 0 -- -- 17
2019-08-14 16:00:00 33.3 15 Oeste 27 Oeste 0 -- -- 17
2019-08-14 15:00:00 32.8 12 Noroeste 26 Noroeste 0 -- -- 18
2019-08-14 14:00:00 31.6 13 Noroeste 26 Noroeste 0 -- -- 19
2019-08-14 13:00:00 30.6 14 Noroeste 24 Oeste 0 -- -- 20
2019-08-14 12:00:00 -- -- -- -- -- -- -- -- --
2019-08-14 11:00:00 -- -- -- -- -- -- -- -- --
2019-08-14 10:00:00 -- -- -- -- -- -- -- -- --
2019-08-14 09:00:00 -- -- -- -- -- -- -- -- --
2019-08-14 08:00:00 -- -- -- -- -- -- -- -- --
2019-08-14 07:00:00 -- -- -- -- -- -- -- -- --
2019-08-14 06:00:00 -- -- -- -- -- -- -- -- --
2019-08-14 05:00:00 -- -- -- -- -- -- -- -- --
2019-08-14 04:00:00 -- -- -- -- -- -- -- -- --
2019-08-14 03:00:00 -- -- -- -- -- -- -- -- --
2019-08-14 02:00:00 -- -- -- -- -- -- -- -- --
2019-08-14 01:00:00 -- -- -- -- -- -- -- -- --
2019-08-14 00:00:00 -- -- -- -- -- -- -- -- --
2019-08-13 23:00:00 -- -- -- -- -- -- -- -- --
2019-08-13 22:00:00 -- -- -- -- -- -- -- -- --
2019-08-13 21:00:00 -- -- -- -- -- -- -- -- --
2019-08-13 20:00:00 -- -- -- -- -- -- -- -- --
2019-08-13 19:00:00 -- -- -- -- -- -- -- -- --
2019-08-13 18:00:00 -- -- -- -- -- -- -- -- --
2019-08-13 17:00:00 -- -- -- -- -- -- -- -- --
2019-08-13 16:00:00 -- -- -- -- -- -- -- -- --
2019-08-13 15:00:00 -- -- -- -- -- -- -- -- --
2019-08-13 14:00:00 -- -- -- -- -- -- -- -- --
2019-08-13 13:00:00 -- -- -- -- -- -- -- -- --
2019-08-13 12:00:00 -- -- -- -- -- -- -- -- --
2019-08-13 11:00:00 -- -- -- -- -- -- -- -- --
2019-08-13 10:00:00 -- -- -- -- -- -- -- -- --
2019-08-13 09:00:00 -- -- -- -- -- -- -- -- --
2019-08-13 08:00:00 -- -- -- -- -- -- -- -- --
2019-08-13 07:00:00 -- -- -- -- -- -- -- -- --
2019-08-13 06:00:00 -- -- -- -- -- -- -- -- --
2019-08-13 05:00:00 -- -- -- -- -- -- -- -- --
2019-08-13 04:00:00 -- -- -- -- -- -- -- -- --
2019-08-13 03:00:00 -- -- -- -- -- -- -- -- --
2019-08-13 02:00:00 -- -- -- -- -- -- -- -- --
2019-08-13 01:00:00 -- -- -- -- -- -- -- -- --
2019-08-13 00:00:00 -- -- -- -- -- -- -- -- --
2019-08-12 23:00:00 -- -- -- -- -- -- -- -- --
2019-08-12 22:00:00 -- -- -- -- -- -- -- -- --
2019-08-12 21:00:00 -- -- -- -- -- -- -- -- --
2019-08-12 20:00:00 -- -- -- -- -- -- -- -- --
2019-08-12 19:00:00 -- -- -- -- -- -- -- -- --
2019-08-12 18:00:00 -- -- -- -- -- -- -- -- --
2019-08-12 17:00:00 -- -- -- -- -- -- -- -- --
2019-08-12 16:00:00 -- -- -- -- -- -- -- -- --
2019-08-12 15:00:00 -- -- -- -- -- -- -- -- --
2019-08-12 14:00:00 -- -- -- -- -- -- -- -- --
2019-08-12 13:00:00 -- -- -- -- -- -- -- -- --
2019-08-12 12:00:00 -- -- -- -- -- -- -- -- --
2019-08-12 11:00:00 -- -- -- -- -- -- -- -- --
2019-08-12 10:00:00 -- -- -- -- -- -- -- -- --
2019-08-12 09:00:00 -- -- -- -- -- -- -- -- --
2019-08-12 08:00:00 -- -- -- -- -- -- -- -- --
2019-08-12 07:00:00 -- -- -- -- -- -- -- -- --
2019-08-12 06:00:00 -- -- -- -- -- -- -- -- --
2019-08-12 05:00:00 -- -- -- -- -- -- -- -- --
2019-08-12 04:00:00 -- -- -- -- -- -- -- -- --
2019-08-12 03:00:00 -- -- -- -- -- -- -- -- --
2019-08-12 02:00:00 -- -- -- -- -- -- -- -- --
2019-08-12 01:00:00 -- -- -- -- -- -- -- -- --
2019-08-12 00:00:00 -- -- -- -- -- -- -- -- --
2019-08-11 23:00:00 -- -- -- -- -- -- -- -- --
2019-08-11 22:00:00 -- -- -- -- -- -- -- -- --
2019-08-11 21:00:00 -- -- -- -- -- -- -- -- --
2019-08-11 20:00:00 -- -- -- -- -- -- -- -- --
2019-08-11 19:00:00 -- -- -- -- -- -- -- -- --
2019-08-11 18:00:00 -- -- -- -- -- -- -- -- --
2019-08-11 17:00:00 -- -- -- -- -- -- -- -- --
2019-08-11 16:00:00 -- -- -- -- -- -- -- -- --
2019-08-11 15:00:00 -- -- -- -- -- -- -- -- --
2019-08-11 14:00:00 -- -- -- -- -- -- -- -- --
2019-08-11 13:00:00 -- -- -- -- -- -- -- -- --
2019-08-11 12:00:00 -- -- -- -- -- -- -- -- --
2019-08-11 11:00:00 -- -- -- -- -- -- -- -- --
2019-08-11 10:00:00 -- -- -- -- -- -- -- -- --
2019-08-11 09:00:00 -- -- -- -- -- -- -- -- --
2019-08-11 08:00:00 -- -- -- -- -- -- -- -- --
2019-08-11 07:00:00 -- -- -- -- -- -- -- -- --
2019-08-11 06:00:00 -- -- -- -- -- -- -- -- --
2019-08-11 05:00:00 -- -- -- -- -- -- -- -- --
2019-08-11 04:00:00 -- -- -- -- -- -- -- -- --
2019-08-11 03:00:00 -- -- -- -- -- -- -- -- --
2019-08-11 02:00:00 23.9 6 Oeste 14 Oeste 0 -- -- 42
2019-08-11 01:00:00 25 8 Oeste 20 Oeste 0 -- -- 39
2019-08-11 00:00:00 26.1 14 Sudoeste 21 Sudoeste 0 -- -- 36
2019-08-10 23:00:00 26.4 14 Sudoeste 19 Sudoeste 0 -- -- 33
2019-08-10 22:00:00 28.1 14 Sudoeste 24 Sudoeste 0 -- -- 29
2019-08-10 21:00:00 30.7 19 Sudoeste 29 Sudoeste 0 -- -- 24
2019-08-10 20:00:00 32.8 21 Sudoeste 32 Sudoeste 0 -- -- 22
2019-08-10 19:00:00 34.4 17 Sudoeste 36 Sudoeste 0 -- -- 22
2019-08-10 18:00:00 34.5 19 Sudoeste 42 Sudoeste 0 -- -- 23
2019-08-10 17:00:00 34.4 18 Sudoeste 46 Oeste 0 -- -- 26
2019-08-10 16:00:00 33.8 12 Sudoeste 31 Oeste 0 -- -- 30
2019-08-10 15:00:00 31.8 16 Oeste 29 Oeste 0 -- -- 35
2019-08-10 14:00:00 30.8 11 Sudoeste 24 Sudoeste 0 -- -- 40
2019-08-10 13:00:00 28.7 9 Oeste 21 Sudoeste 0 -- -- 45
2019-08-10 12:00:00 26.9 9 Oeste 20 Oeste 0 -- -- 53
2019-08-10 11:00:00 24.9 5 Oeste 10 Sudoeste 0 -- -- 58
2019-08-10 10:00:00 22.5 5 Norte 8 Norte 0 -- -- 66
2019-08-10 09:00:00 20.6 3 Noroeste 9 Noroeste 0 -- -- 72
2019-08-10 08:00:00 18.9 5 Noroeste 10 Noroeste 0 -- -- 78
2019-08-10 07:00:00 19.4 6 Noroeste 13 Oeste 0 -- -- 75
2019-08-10 06:00:00 20.1 8 Oeste 12 Noroeste 0 -- -- 73
2019-08-10 05:00:00 20.4 5 Sudoeste 9 Sudoeste 0 -- -- 68
2019-08-10 04:00:00 21.2 6 Sur 8 Sudeste 0 -- -- 66
2019-08-10 03:00:00 21.4 3 Nordeste 9 Nordeste 0 -- -- 64
2019-08-10 02:00:00 22.1 5 Norte 21 Noroeste 0 -- -- 58
2019-08-10 01:00:00 25.2 7 Noroeste 14 Noroeste 0 -- -- 49
2019-08-10 00:00:00 25.9 3 Sudoeste 8 Noroeste 0 -- -- 39
2019-08-09 23:00:00 27.1 5 Oeste 21 Sudoeste 0 -- -- 38
2019-08-09 22:00:00 28.8 14 Oeste 35 Oeste 0 -- -- 33
2019-08-09 21:00:00 31.2 15 Oeste 32 Sudoeste 0 -- -- 30
2019-08-09 20:00:00 33.1 18 Sudoeste 39 Sudoeste 0 -- -- 27
2019-08-09 19:00:00 34 24 Sudoeste 46 Sudoeste 0 -- -- 27
2019-08-09 18:00:00 34.8 24 Sudoeste 40 Sudoeste 0 -- -- 26
2019-08-09 17:00:00 33.8 11 Noroeste 32 Oeste 0 -- -- 27
2019-08-09 16:00:00 33.6 17 Oeste 34 Sudoeste 0 -- -- 27
2019-08-09 15:00:00 32.5 11 Oeste 29 Oeste 0 -- -- 30
2019-08-09 14:00:00 31.5 10 Oeste 28 Sudoeste 0 -- -- 33
2019-08-09 13:00:00 29.8 10 Oeste 28 Sudoeste 0 -- -- 35
2019-08-09 12:00:00 28.5 12 Sudoeste 23 Sudoeste 0 -- -- 39
2019-08-09 11:00:00 25.8 11 Oeste 19 Sudoeste 0 -- -- 46
2019-08-09 10:00:00 23.4 8 Sudoeste 17 Sur 0 -- -- 46
2019-08-09 09:00:00 21.2 9 Sur 15 Sur 0 -- -- 47
2019-08-09 08:00:00 18.1 7 Sur 13 Sur 0 -- -- 53
2019-08-09 07:00:00 17.5 9 Sur 14 Sur 0 -- -- 52
2019-08-09 06:00:00 18.5 10 Sur 15 Sur 0 -- -- 50
2019-08-09 05:00:00 19.3 6 Sur 13 Sur 0 -- -- 39
2019-08-09 04:00:00 20.5 8 Sur 16 Sudoeste 0 -- -- 35
2019-08-09 03:00:00 22.3 7 Sudoeste 17 Oeste 0 -- -- 32
2019-08-09 02:00:00 23.3 11 Sudoeste 15 Sudoeste 0 -- -- 30
2019-08-09 01:00:00 24.1 8 Sudoeste 22 Sudoeste 0 -- -- 28
2019-08-09 00:00:00 25.1 6 Sudoeste 24 Sudoeste 0 -- -- 27
2019-08-08 23:00:00 26.9 17 Sudoeste 26 Sudoeste 0 -- -- 26
2019-08-08 22:00:00 28.4 12 Sudoeste 27 Sudoeste 0 -- -- 23
2019-08-08 21:00:00 31.5 18 Sudoeste 32 Sudoeste 0 -- -- 20
2019-08-08 20:00:00 33.8 20 Sudoeste 33 Oeste 0 -- -- 20
2019-08-08 19:00:00 35 20 Sudoeste 44 Sudoeste 0 -- -- 19
2019-08-08 18:00:00 35.6 19 Sudoeste 39 Sudoeste 0 -- -- 20
2019-08-08 17:00:00 35.2 22 Oeste 45 Sudoeste 0 -- -- 22
2019-08-08 16:00:00 34.6 17 Sudoeste 32 Oeste 0 -- -- 22
2019-08-08 15:00:00 33.6 5 Sur 26 Sur 0 -- -- 25
2019-08-08 14:00:00 31.8 13 Oeste 26 Sudoeste 0 -- -- 27
2019-08-08 13:00:00 30.6 8 Oeste 21 Oeste 0 -- -- 29
2019-08-08 12:00:00 28.3 10 Oeste 19 Oeste 0 -- -- 33
2019-08-08 11:00:00 25.8 5 Oeste 12 Sudoeste 0 -- -- 36
2019-08-08 10:00:00 23.1 5 Sudoeste 10 Sudoeste 0 -- -- 44
2019-08-08 09:00:00 19.9 4 Sur 6 Sudeste 0 -- -- 50
2019-08-08 08:00:00 19.3 4 Sur 6 Sur 0 -- -- 50
2019-08-08 07:00:00 19.4 4 Sudoeste 6 Sur 0 -- -- 52
2019-08-08 06:00:00 20 0 Calma 4 Oeste 0 -- -- 50
2019-08-08 05:00:00 20.1 2 Noroeste 5 Noroeste 0 -- -- 49
2019-08-08 04:00:00 -- -- -- -- -- -- -- -- --
2019-08-08 03:00:00 20.8 3 Noroeste 6 Noroeste 0 -- -- 46
2019-08-08 02:00:00 -- -- -- -- -- -- -- -- --
2019-08-08 01:00:00 -- -- -- -- -- -- -- -- --
2019-08-08 00:00:00 -- -- -- -- -- -- -- -- --
2019-08-07 23:00:00 -- -- -- -- -- -- -- -- --
2019-08-07 22:00:00 -- -- -- -- -- -- -- -- --
2019-08-07 21:00:00 -- -- -- -- -- -- -- -- --
2019-08-07 20:00:00 -- -- -- -- -- -- -- -- --
2019-08-07 19:00:00 -- -- -- -- -- -- -- -- --
2019-08-07 18:00:00 -- -- -- -- -- -- -- -- --
2019-08-07 17:00:00 -- -- -- -- -- -- -- -- --
2019-08-07 16:00:00 -- -- -- -- -- -- -- -- --
2019-08-07 15:00:00 -- -- -- -- -- -- -- -- --
2019-08-07 14:00:00 -- -- -- -- -- -- -- -- --
2019-08-07 13:00:00 -- -- -- -- -- -- -- -- --
2019-08-07 12:00:00 -- -- -- -- -- -- -- -- --
2019-08-07 11:00:00 -- -- -- -- -- -- -- -- --
2019-08-07 10:00:00 -- -- -- -- -- -- -- -- --
2019-08-07 09:00:00 -- -- -- -- -- -- -- -- --
2019-08-07 08:00:00 -- -- -- -- -- -- -- -- --
2019-08-07 07:00:00 -- -- -- -- -- -- -- -- --
2019-08-07 06:00:00 -- -- -- -- -- -- -- -- --
2019-08-07 05:00:00 -- -- -- -- -- -- -- -- --
2019-08-07 04:00:00 -- -- -- -- -- -- -- -- --
2019-08-07 03:00:00 -- -- -- -- -- -- -- -- --
2019-08-07 02:00:00 -- -- -- -- -- -- -- -- --
2019-08-07 01:00:00 -- -- -- -- -- -- -- -- --
2019-08-07 00:00:00 -- -- -- -- -- -- -- -- --
2019-08-06 23:00:00 -- -- -- -- -- -- -- -- --
2019-08-06 22:00:00 -- -- -- -- -- -- -- -- --
2019-08-06 21:00:00 -- -- -- -- -- -- -- -- --
2019-08-06 20:00:00 -- -- -- -- -- -- -- -- --
2019-08-06 19:00:00 -- -- -- -- -- -- -- -- --
2019-08-06 18:00:00 -- -- -- -- -- -- -- -- --
2019-08-06 17:00:00 -- -- -- -- -- -- -- -- --
2019-08-06 16:00:00 -- -- -- -- -- -- -- -- --
2019-08-06 15:00:00 -- -- -- -- -- -- -- -- --
2019-08-06 14:00:00 -- -- -- -- -- -- -- -- --
2019-08-06 13:00:00 -- -- -- -- -- -- -- -- --
2019-08-06 12:00:00 -- -- -- -- -- -- -- -- --
2019-08-06 11:00:00 -- -- -- -- -- -- -- -- --
2019-08-06 10:00:00 -- -- -- -- -- -- -- -- --
2019-08-06 09:00:00 -- -- -- -- -- -- -- -- --
2019-08-06 08:00:00 -- -- -- -- -- -- -- -- --
2019-08-06 07:00:00 -- -- -- -- -- -- -- -- --
2019-08-06 06:00:00 -- -- -- -- -- -- -- -- --
2019-08-06 05:00:00 -- -- -- -- -- -- -- -- --
2019-08-06 04:00:00 -- -- -- -- -- -- -- -- --
2019-08-06 03:00:00 -- -- -- -- -- -- -- -- --
2019-08-06 02:00:00 -- -- -- -- -- -- -- -- --
2019-08-06 01:00:00 -- -- -- -- -- -- -- -- --
2019-08-06 00:00:00 -- -- -- -- -- -- -- -- --
2019-08-05 23:00:00 -- -- -- -- -- -- -- -- --
2019-08-05 22:00:00 -- -- -- -- -- -- -- -- --
2019-08-05 21:00:00 -- -- -- -- -- -- -- -- --
2019-08-05 20:00:00 -- -- -- -- -- -- -- -- --
2019-08-05 19:00:00 -- -- -- -- -- -- -- -- --
2019-08-05 18:00:00 -- -- -- -- -- -- -- -- --
2019-08-05 17:00:00 -- -- -- -- -- -- -- -- --
2019-08-05 16:00:00 -- -- -- -- -- -- -- -- --
2019-08-05 15:00:00 -- -- -- -- -- -- -- -- --
2019-08-05 14:00:00 -- -- -- -- -- -- -- -- --
2019-08-05 13:00:00 -- -- -- -- -- -- -- -- --
2019-08-05 12:00:00 -- -- -- -- -- -- -- -- --
2019-08-05 11:00:00 -- -- -- -- -- -- -- -- --
2019-08-05 10:00:00 -- -- -- -- -- -- -- -- --
2019-08-05 09:00:00 -- -- -- -- -- -- -- -- --
2019-08-05 08:00:00 -- -- -- -- -- -- -- -- --
2019-08-05 07:00:00 -- -- -- -- -- -- -- -- --
2019-08-05 06:00:00 -- -- -- -- -- -- -- -- --
2019-08-05 05:00:00 -- -- -- -- -- -- -- -- --
2019-08-05 04:00:00 -- -- -- -- -- -- -- -- --
2019-08-05 03:00:00 -- -- -- -- -- -- -- -- --
2019-08-05 02:00:00 -- -- -- -- -- -- -- -- --
2019-08-05 01:00:00 -- -- -- -- -- -- -- -- --
2019-08-05 00:00:00 -- -- -- -- -- -- -- -- --
2019-08-04 23:00:00 -- -- -- -- -- -- -- -- --
2019-08-04 22:00:00 -- -- -- -- -- -- -- -- --
2019-08-04 21:00:00 -- -- -- -- -- -- -- -- --
2019-08-04 20:00:00 -- -- -- -- -- -- -- -- --
2019-08-04 19:00:00 -- -- -- -- -- -- -- -- --
2019-08-04 18:00:00 -- -- -- -- -- -- -- -- --
2019-08-04 17:00:00 -- -- -- -- -- -- -- -- --
2019-08-04 16:00:00 -- -- -- -- -- -- -- -- --
2019-08-04 15:00:00 -- -- -- -- -- -- -- -- --
2019-08-04 14:00:00 -- -- -- -- -- -- -- -- --
2019-08-04 13:00:00 -- -- -- -- -- -- -- -- --
2019-08-04 12:00:00 -- -- -- -- -- -- -- -- --
2019-08-04 11:00:00 -- -- -- -- -- -- -- -- --
2019-08-04 10:00:00 -- -- -- -- -- -- -- -- --
2019-08-04 09:00:00 -- -- -- -- -- -- -- -- --
2019-08-04 08:00:00 -- -- -- -- -- -- -- -- --
2019-08-04 07:00:00 -- -- -- -- -- -- -- -- --
2019-08-04 06:00:00 -- -- -- -- -- -- -- -- --
2019-08-04 05:00:00 -- -- -- -- -- -- -- -- --
2019-08-04 04:00:00 -- -- -- -- -- -- -- -- --
2019-08-04 03:00:00 -- -- -- -- -- -- -- -- --
2019-08-04 02:00:00 -- -- -- -- -- -- -- -- --
2019-08-04 01:00:00 -- -- -- -- -- -- -- -- --
2019-08-04 00:00:00 -- -- -- -- -- -- -- -- --
2019-08-03 23:00:00 -- -- -- -- -- -- -- -- --
2019-08-03 22:00:00 -- -- -- -- -- -- -- -- --
2019-08-03 21:00:00 -- -- -- -- -- -- -- -- --
2019-08-03 20:00:00 -- -- -- -- -- -- -- -- --
2019-08-03 19:00:00 -- -- -- -- -- -- -- -- --
2019-08-03 18:00:00 -- -- -- -- -- -- -- -- --
2019-08-03 17:00:00 -- -- -- -- -- -- -- -- --
2019-08-03 16:00:00 -- -- -- -- -- -- -- -- --
2019-08-03 15:00:00 -- -- -- -- -- -- -- -- --
2019-08-03 14:00:00 -- -- -- -- -- -- -- -- --
2019-08-03 13:00:00 -- -- -- -- -- -- -- -- --
2019-08-03 12:00:00 -- -- -- -- -- -- -- -- --
2019-08-03 11:00:00 -- -- -- -- -- -- -- -- --
2019-08-03 10:00:00 -- -- -- -- -- -- -- -- --
2019-08-03 09:00:00 -- -- -- -- -- -- -- -- --
2019-08-03 08:00:00 -- -- -- -- -- -- -- -- --
2019-08-03 07:00:00 -- -- -- -- -- -- -- -- --
2019-08-03 06:00:00 -- -- -- -- -- -- -- -- --
2019-08-03 05:00:00 -- -- -- -- -- -- -- -- --
2019-08-03 04:00:00 -- -- -- -- -- -- -- -- --
2019-08-03 03:00:00 -- -- -- -- -- -- -- -- --
2019-08-03 02:00:00 -- -- -- -- -- -- -- -- --
2019-08-03 01:00:00 -- -- -- -- -- -- -- -- --
2019-08-03 00:00:00 -- -- -- -- -- -- -- -- --
2019-08-02 23:00:00 -- -- -- -- -- -- -- -- --
2019-08-02 22:00:00 -- -- -- -- -- -- -- -- --
2019-08-02 21:00:00 -- -- -- -- -- -- -- -- --
2019-08-02 20:00:00 -- -- -- -- -- -- -- -- --
2019-08-02 19:00:00 -- -- -- -- -- -- -- -- --
2019-08-02 18:00:00 -- -- -- -- -- -- -- -- --
2019-08-02 17:00:00 -- -- -- -- -- -- -- -- --
2019-08-02 16:00:00 -- -- -- -- -- -- -- -- --
2019-08-02 15:00:00 -- -- -- -- -- -- -- -- --
2019-08-02 14:00:00 -- -- -- -- -- -- -- -- --
2019-08-02 13:00:00 -- -- -- -- -- -- -- -- --
2019-08-02 12:00:00 -- -- -- -- -- -- -- -- --
2019-08-02 11:00:00 -- -- -- -- -- -- -- -- --
2019-08-02 10:00:00 -- -- -- -- -- -- -- -- --
2019-08-02 09:00:00 -- -- -- -- -- -- -- -- --
2019-08-02 08:00:00 -- -- -- -- -- -- -- -- --
2019-08-02 07:00:00 -- -- -- -- -- -- -- -- --
2019-08-02 06:00:00 -- -- -- -- -- -- -- -- --
2019-08-02 05:00:00 -- -- -- -- -- -- -- -- --
2019-08-02 04:00:00 -- -- -- -- -- -- -- -- --
2019-08-02 03:00:00 -- -- -- -- -- -- -- -- --
2019-08-02 02:00:00 -- -- -- -- -- -- -- -- --
2019-08-02 01:00:00 -- -- -- -- -- -- -- -- --
2019-08-02 00:00:00 -- -- -- -- -- -- -- -- --
2019-08-01 23:00:00 -- -- -- -- -- -- -- -- --
2019-08-01 22:00:00 -- -- -- -- -- -- -- -- --
2019-08-01 21:00:00 -- -- -- -- -- -- -- -- --
2019-08-01 20:00:00 -- -- -- -- -- -- -- -- --
2019-08-01 19:00:00 -- -- -- -- -- -- -- -- --
2019-08-01 18:00:00 -- -- -- -- -- -- -- -- --
2019-08-01 17:00:00 -- -- -- -- -- -- -- -- --
2019-08-01 16:00:00 -- -- -- -- -- -- -- -- --
2019-08-01 15:00:00 -- -- -- -- -- -- -- -- --
2019-08-01 14:00:00 -- -- -- -- -- -- -- -- --
2019-08-01 13:00:00 -- -- -- -- -- -- -- -- --
2019-08-01 12:00:00 -- -- -- -- -- -- -- -- --
2019-08-01 11:00:00 -- -- -- -- -- -- -- -- --
2019-08-01 10:00:00 -- -- -- -- -- -- -- -- --
2019-08-01 09:00:00 -- -- -- -- -- -- -- -- --
2019-08-01 08:00:00 -- -- -- -- -- -- -- -- --
2019-08-01 07:00:00 -- -- -- -- -- -- -- -- --
2019-08-01 06:00:00 -- -- -- -- -- -- -- -- --
2019-08-01 05:00:00 -- -- -- -- -- -- -- -- --
2019-08-01 04:00:00 -- -- -- -- -- -- -- -- --
2019-08-01 03:00:00 -- -- -- -- -- -- -- -- --
2019-08-01 02:00:00 -- -- -- -- -- -- -- -- --
2019-08-01 01:00:00 -- -- -- -- -- -- -- -- --
2019-08-01 00:00:00 -- -- -- -- -- -- -- -- --
2019-07-31 23:00:00 -- -- -- -- -- -- -- -- --
2019-07-31 22:00:00 -- -- -- -- -- -- -- -- --
2019-07-31 21:00:00 -- -- -- -- -- -- -- -- --
2019-07-31 20:00:00 -- -- -- -- -- -- -- -- --
2019-07-31 19:00:00 -- -- -- -- -- -- -- -- --
2019-07-31 18:00:00 -- -- -- -- -- -- -- -- --
2019-07-31 17:00:00 -- -- -- -- -- -- -- -- --
2019-07-31 16:00:00 -- -- -- -- -- -- -- -- --
2019-07-31 15:00:00 -- -- -- -- -- -- -- -- --
2019-07-31 14:00:00 -- -- -- -- -- -- -- -- --
2019-07-31 13:00:00 -- -- -- -- -- -- -- -- --
2019-07-31 12:00:00 -- -- -- -- -- -- -- -- --
2019-07-31 11:00:00 -- -- -- -- -- -- -- -- --
2019-07-31 10:00:00 -- -- -- -- -- -- -- -- --
2019-07-31 09:00:00 -- -- -- -- -- -- -- -- --
2019-07-31 08:00:00 -- -- -- -- -- -- -- -- --
2019-07-31 07:00:00 -- -- -- -- -- -- -- -- --
2019-07-31 06:00:00 -- -- -- -- -- -- -- -- --
2019-07-31 05:00:00 -- -- -- -- -- -- -- -- --
2019-07-31 04:00:00 -- -- -- -- -- -- -- -- --
2019-07-31 03:00:00 -- -- -- -- -- -- -- -- --
2019-07-31 02:00:00 -- -- -- -- -- -- -- -- --
2019-07-31 01:00:00 -- -- -- -- -- -- -- -- --
2019-07-31 00:00:00 -- -- -- -- -- -- -- -- --
2019-07-30 23:00:00 -- -- -- -- -- -- -- -- --
2019-07-30 22:00:00 -- -- -- -- -- -- -- -- --
2019-07-30 21:00:00 -- -- -- -- -- -- -- -- --
2019-07-30 20:00:00 -- -- -- -- -- -- -- -- --
2019-07-30 19:00:00 -- -- -- -- -- -- -- -- --
2019-07-30 18:00:00 -- -- -- -- -- -- -- -- --
2019-07-30 17:00:00 -- -- -- -- -- -- -- -- --
2019-07-30 16:00:00 -- -- -- -- -- -- -- -- --
2019-07-30 15:00:00 -- -- -- -- -- -- -- -- --
2019-07-30 14:00:00 -- -- -- -- -- -- -- -- --
2019-07-30 13:00:00 -- -- -- -- -- -- -- -- --
2019-07-30 12:00:00 -- -- -- -- -- -- -- -- --
2019-07-30 11:00:00 -- -- -- -- -- -- -- -- --
2019-07-30 10:00:00 -- -- -- -- -- -- -- -- --
2019-07-30 09:00:00 -- -- -- -- -- -- -- -- --
2019-07-30 08:00:00 -- -- -- -- -- -- -- -- --
2019-07-30 07:00:00 -- -- -- -- -- -- -- -- --
2019-07-30 06:00:00 -- -- -- -- -- -- -- -- --
2019-07-30 05:00:00 -- -- -- -- -- -- -- -- --
2019-07-30 04:00:00 -- -- -- -- -- -- -- -- --
2019-07-30 03:00:00 -- -- -- -- -- -- -- -- --
2019-07-30 02:00:00 -- -- -- -- -- -- -- -- --
2019-07-30 01:00:00 -- -- -- -- -- -- -- -- --
2019-07-30 00:00:00 -- -- -- -- -- -- -- -- --
2019-07-29 23:00:00 -- -- -- -- -- -- -- -- --
2019-07-29 22:00:00 -- -- -- -- -- -- -- -- --
2019-07-29 21:00:00 -- -- -- -- -- -- -- -- --
2019-07-29 20:00:00 -- -- -- -- -- -- -- -- --
2019-07-29 19:00:00 -- -- -- -- -- -- -- -- --
2019-07-29 18:00:00 -- -- -- -- -- -- -- -- --
2019-07-29 17:00:00 -- -- -- -- -- -- -- -- --
2019-07-29 16:00:00 -- -- -- -- -- -- -- -- --
2019-07-29 15:00:00 -- -- -- -- -- -- -- -- --
2019-07-29 14:00:00 -- -- -- -- -- -- -- -- --
2019-07-29 13:00:00 -- -- -- -- -- -- -- -- --
2019-07-29 12:00:00 -- -- -- -- -- -- -- -- --
2019-07-29 11:00:00 -- -- -- -- -- -- -- -- --
2019-07-29 10:00:00 -- -- -- -- -- -- -- -- --
2019-07-29 09:00:00 -- -- -- -- -- -- -- -- --
2019-07-29 08:00:00 -- -- -- -- -- -- -- -- --
2019-07-29 07:00:00 -- -- -- -- -- -- -- -- --
2019-07-29 06:00:00 -- -- -- -- -- -- -- -- --
2019-07-29 05:00:00 -- -- -- -- -- -- -- -- --
2019-07-29 04:00:00 -- -- -- -- -- -- -- -- --
2019-07-29 03:00:00 -- -- -- -- -- -- -- -- --
2019-07-29 02:00:00 -- -- -- -- -- -- -- -- --
2019-07-29 01:00:00 -- -- -- -- -- -- -- -- --
2019-07-29 00:00:00 -- -- -- -- -- -- -- -- --
2019-07-28 23:00:00 -- -- -- -- -- -- -- -- --
2019-07-28 22:00:00 -- -- -- -- -- -- -- -- --
2019-07-28 21:00:00 -- -- -- -- -- -- -- -- --
2019-07-28 20:00:00 -- -- -- -- -- -- -- -- --
2019-07-28 19:00:00 -- -- -- -- -- -- -- -- --
2019-07-28 18:00:00 -- -- -- -- -- -- -- -- --
2019-07-28 17:00:00 -- -- -- -- -- -- -- -- --
2019-07-28 16:00:00 -- -- -- -- -- -- -- -- --
2019-07-28 15:00:00 -- -- -- -- -- -- -- -- --
2019-07-28 14:00:00 -- -- -- -- -- -- -- -- --
2019-07-28 13:00:00 -- -- -- -- -- -- -- -- --
2019-07-28 12:00:00 -- -- -- -- -- -- -- -- --
2019-07-28 11:00:00 -- -- -- -- -- -- -- -- --
2019-07-28 10:00:00 -- -- -- -- -- -- -- -- --
2019-07-28 09:00:00 -- -- -- -- -- -- -- -- --
2019-07-28 08:00:00 -- -- -- -- -- -- -- -- --
2019-07-28 07:00:00 -- -- -- -- -- -- -- -- --
2019-07-28 06:00:00 -- -- -- -- -- -- -- -- --
2019-07-28 05:00:00 -- -- -- -- -- -- -- -- --
2019-07-28 04:00:00 -- -- -- -- -- -- -- -- --
2019-07-28 03:00:00 -- -- -- -- -- -- -- -- --
2019-07-28 02:00:00 -- -- -- -- -- -- -- -- --
2019-07-28 01:00:00 -- -- -- -- -- -- -- -- --
2019-07-28 00:00:00 -- -- -- -- -- -- -- -- --
2019-07-27 23:00:00 -- -- -- -- -- -- -- -- --
2019-07-26 12:00:00 -- -- -- -- -- -- -- -- --
2019-07-26 11:00:00 -- -- -- -- -- -- -- -- --
2019-07-26 10:00:00 -- -- -- -- -- -- -- -- --
2019-07-26 09:00:00 -- -- -- -- -- -- -- -- --
2019-07-26 08:00:00 -- -- -- -- -- -- -- -- --
2019-07-26 07:00:00 -- -- -- -- -- -- -- -- --
2019-07-26 06:00:00 -- -- -- -- -- -- -- -- --
2019-07-26 05:00:00 -- -- -- -- -- -- -- -- --
2019-07-26 04:00:00 -- -- -- -- -- -- -- -- --
2019-07-26 03:00:00 -- -- -- -- -- -- -- -- --
2019-07-26 02:00:00 -- -- -- -- -- -- -- -- --
2019-07-26 01:00:00 -- -- -- -- -- -- -- -- --
2019-07-26 00:00:00 -- -- -- -- -- -- -- -- --
2019-07-25 23:00:00 -- -- -- -- -- -- -- -- --
2019-07-25 22:00:00 -- -- -- -- -- -- -- -- --
2019-07-25 21:00:00 -- -- -- -- -- -- -- -- --
2019-07-25 20:00:00 -- -- -- -- -- -- -- -- --
2019-07-25 19:00:00 -- -- -- -- -- -- -- -- --
2019-07-25 18:00:00 -- -- -- -- -- -- -- -- --
2019-07-25 17:00:00 -- -- -- -- -- -- -- -- --
2019-07-25 16:00:00 -- -- -- -- -- -- -- -- --
2019-07-25 15:00:00 -- -- -- -- -- -- -- -- --
2019-07-25 14:00:00 -- -- -- -- -- -- -- -- --
2019-07-25 13:00:00 -- -- -- -- -- -- -- -- --
2019-07-25 12:00:00 -- -- -- -- -- -- -- -- --
2019-07-25 11:00:00 -- -- -- -- -- -- -- -- --
2019-07-25 10:00:00 -- -- -- -- -- -- -- -- --
2019-07-25 09:00:00 -- -- -- -- -- -- -- -- --
2019-07-25 08:00:00 -- -- -- -- -- -- -- -- --
2019-07-25 07:00:00 -- -- -- -- -- -- -- -- --
2019-07-25 06:00:00 -- -- -- -- -- -- -- -- --
2019-07-25 05:00:00 -- -- -- -- -- -- -- -- --
2019-07-25 04:00:00 -- -- -- -- -- -- -- -- --
2019-07-25 03:00:00 -- -- -- -- -- -- -- -- --
2019-07-25 02:00:00 -- -- -- -- -- -- -- -- --
2019-07-25 01:00:00 -- -- -- -- -- -- -- -- --
2019-07-25 00:00:00 -- -- -- -- -- -- -- -- --
2019-07-24 23:00:00 -- -- -- -- -- -- -- -- --
2019-07-24 22:00:00 -- -- -- -- -- -- -- -- --
2019-07-24 21:00:00 -- -- -- -- -- -- -- -- --
2019-07-24 20:00:00 -- -- -- -- -- -- -- -- --
2019-07-24 19:00:00 -- -- -- -- -- -- -- -- --
2019-07-24 18:00:00 -- -- -- -- -- -- -- -- --
2019-07-24 17:00:00 -- -- -- -- -- -- -- -- --
2019-07-24 16:00:00 -- -- -- -- -- -- -- -- --
2019-07-24 15:00:00 -- -- -- -- -- -- -- -- --
2019-07-24 14:00:00 -- -- -- -- -- -- -- -- --
2019-07-24 13:00:00 -- -- -- -- -- -- -- -- --
2019-07-24 12:00:00 -- -- -- -- -- -- -- -- --
2019-07-24 11:00:00 -- -- -- -- -- -- -- -- --
2019-07-24 10:00:00 -- -- -- -- -- -- -- -- --
2019-07-24 09:00:00 -- -- -- -- -- -- -- -- --
2019-07-24 08:00:00 -- -- -- -- -- -- -- -- --
2019-07-24 07:00:00 -- -- -- -- -- -- -- -- --
2019-07-24 06:00:00 -- -- -- -- -- -- -- -- --
2019-07-24 05:00:00 -- -- -- -- -- -- -- -- --
2019-07-24 04:00:00 -- -- -- -- -- -- -- -- --
2019-07-24 03:00:00 -- -- -- -- -- -- -- -- --
2019-07-24 02:00:00 -- -- -- -- -- -- -- -- --
2019-07-24 01:00:00 -- -- -- -- -- -- -- -- --
2019-07-24 00:00:00 -- -- -- -- -- -- -- -- --
2019-07-23 23:00:00 -- -- -- -- -- -- -- -- --
2019-07-23 22:00:00 -- -- -- -- -- -- -- -- --
2019-07-23 21:00:00 -- -- -- -- -- -- -- -- --
2019-07-23 20:00:00 -- -- -- -- -- -- -- -- --
2019-07-23 19:00:00 -- -- -- -- -- -- -- -- --
2019-07-23 18:00:00 37.1 17 Sur 39 Sur 0 -- -- 18
2019-07-23 17:00:00 39 15 Sur 57 Sudeste 0 -- -- 17
2019-07-23 16:00:00 38.8 19 Sudeste 37 Sudeste 0 -- -- 17
2019-07-23 15:00:00 38.8 11 Sudeste 31 Sur 0 -- -- 18
2019-07-23 14:00:00 37.8 12 Sur 28 Sur 0 -- -- 18
2019-07-23 13:00:00 36.9 10 Sur 26 Sudeste 0 -- -- 19
2019-07-23 12:00:00 34.7 10 Sur 25 Sur 0 -- -- 20
2019-07-23 11:00:00 32.9 12 Sur 30 Sur 0 -- -- 21
2019-07-23 10:00:00 30.9 10 Sur 26 Este 0 -- -- 23
2019-07-23 09:00:00 26.3 11 Este 24 Este 0 -- -- 29
2019-07-23 08:00:00 22.5 19 Este 25 Este 0 -- -- 32
2019-07-23 07:00:00 23 9 Este 12 Nordeste 0 -- -- 30
2019-07-23 06:00:00 22.2 6 Nordeste 12 Nordeste 0 -- -- 28
2019-07-23 05:00:00 23.4 4 Sudoeste 10 Sudoeste 0 -- -- 26
2019-07-23 04:00:00 24 6 Sur 29 Sudeste 0 -- -- 25
2019-07-23 03:00:00 25.3 11 Sur 23 Sudeste 0 -- -- 23
2019-07-23 02:00:00 26.1 8 Sur 30 Sudeste 0 -- -- 22
2019-07-23 01:00:00 25.9 16 Sur 31 Sur 0 -- -- 25
2019-07-23 00:00:00 26.8 15 Sudeste 31 Sudeste 0 -- -- 27
2019-07-22 23:00:00 27.9 15 Sudeste 30 Sur 0 -- -- 29
2019-07-22 22:00:00 29.3 16 Sudeste 30 Sudeste 0 -- -- 27
2019-07-22 21:00:00 32.2 19 Sudeste 37 Sudeste 0 -- -- 24
2019-07-22 20:00:00 34.9 21 Sudeste 39 Sudeste 0 -- -- 21
2019-07-22 19:00:00 35.3 21 Sudeste 39 Sudeste 0 -- -- 22
2019-07-22 18:00:00 39.4 16 Sudeste 34 Sudeste 0 -- -- 20
2019-07-22 17:00:00 39.7 16 Sudeste 34 Sudeste 0 -- -- 19
2019-07-22 16:00:00 39.6 12 Sudeste 30 Este 0 -- -- 19
2019-07-22 15:00:00 38.4 13 Sur 30 Sur 0 -- -- 19
2019-07-22 14:00:00 36.9 9 Sur 24 Sur 0 -- -- 21
2019-07-22 13:00:00 35.6 9 Sur 20 Sur 0 -- -- 22
2019-07-22 12:00:00 33.4 8 Sur 24 Sur 0 -- -- 24
2019-07-22 11:00:00 31.6 8 Sur 19 Sudeste 0 -- -- 25
2019-07-22 10:00:00 29.1 8 Sudeste 15 Sudeste 0 -- -- 28
2019-07-22 09:00:00 24.7 8 Este 15 Este 0 -- -- 33
2019-07-22 08:00:00 20.6 10 Este 15 Este 0 -- -- 37
2019-07-22 07:00:00 19.9 6 Sudeste 10 Sudeste 0 -- -- 39
2019-07-22 06:00:00 21.3 4 Sur 13 Sudeste 0 -- -- 37
2019-07-22 05:00:00 21.8 6 Sur 16 Sudeste 0 -- -- 36
2019-07-22 04:00:00 23 8 Sur 17 Sudeste 0 -- -- 34
2019-07-22 03:00:00 24.1 7 Sur 21 Sudeste 0 -- -- 32
2019-07-22 02:00:00 24.7 6 Sur 26 Sur 0 -- -- 30
2019-07-22 01:00:00 25.2 13 Sur 28 Sudeste 0 -- -- 28
2019-07-22 00:00:00 25.8 13 Sudeste 26 Sudeste 0 -- -- 28
2019-07-21 23:00:00 26.9 13 Sudeste 30 Sudeste 0 -- -- 27
2019-07-21 22:00:00 28.8 20 Sudeste 36 Sudeste 0 -- -- 26
2019-07-21 21:00:00 31.2 23 Sudeste 38 Este 0 -- -- 26
2019-07-21 20:00:00 33.8 24 Sudeste 40 Este 0 -- -- 25
2019-07-21 19:00:00 36.6 18 Sudeste 30 Este 0 -- -- 22
2019-07-21 18:00:00 38.8 11 Sudeste 34 Sur 0 -- -- 20
2019-07-21 17:00:00 37.9 10 Sudeste 28 Este 0 -- -- 20
2019-07-21 16:00:00 38.7 10 Sur 23 Este 0 -- -- 20
2019-07-21 15:00:00 36.7 16 Este 34 Este 0 -- -- 22
2019-07-21 14:00:00 35.5 7 Sudeste 24 Este 0 -- -- 25
2019-07-21 13:00:00 34.5 5 Este 19 Este 0 -- -- 27
2019-07-21 12:00:00 32.9 5 Sur 14 Sur 0 -- -- 29
2019-07-21 11:00:00 31 5 Sudeste 19 Sur 0 -- -- 34
2019-07-21 10:00:00 27.3 11 Sur 20 Sur 0 -- -- 40
2019-07-21 09:00:00 24.9 10 Sur 14 Sur 0 -- -- 45
2019-07-21 08:00:00 22.6 9 Sur 17 Sur 0 -- -- 50
2019-07-21 07:00:00 22 7 Sur 19 Sudoeste 0 -- -- 50
2019-07-21 06:00:00 22.6 5 Sur 13 Sur 0 -- -- 48
2019-07-21 05:00:00 23.3 5 Sur 20 Sur 0 -- -- 46
2019-07-21 04:00:00 23.8 7 Sur 21 Sur 0 -- -- 45
2019-07-21 03:00:00 24.1 6 Sur 19 Sur 0 -- -- 44
2019-07-21 02:00:00 25 8 Sur 18 Sudeste 0 -- -- 43
2019-07-21 01:00:00 26.3 11 Sur 21 Sur 0 -- -- 41
2019-07-21 00:00:00 27.6 10 Sur 24 Sudeste 0 -- -- 38
2019-07-20 23:00:00 28.9 12 Sur 22 Sur 0 -- -- 35
2019-07-20 22:00:00 31.5 10 Sudeste 25 Sudeste 0 -- -- 31
2019-07-20 21:00:00 34.1 6 Norte 22 Oeste 0 -- -- 23
2019-07-20 20:00:00 36.1 7 Norte 19 Noroeste 0 -- -- 21
2019-07-20 19:00:00 37 4 Noroeste 19 Oeste 0 -- -- 20
2019-07-20 18:00:00 37.2 8 Noroeste 21 Sudoeste 0 -- -- 20
2019-07-20 17:00:00 36.5 7 Norte 24 Oeste 0 -- -- 21
2019-07-20 16:00:00 36.6 6 Noroeste 22 Sudoeste 0 -- -- 20
2019-07-20 15:00:00 36.3 9 Sur 22 Sudoeste 0 -- -- 21
2019-07-20 14:00:00 35.1 11 Sudoeste 23 Sudoeste 0 -- -- 22
2019-07-20 13:00:00 33.2 13 Sudoeste 21 Sudoeste 0 -- -- 25
2019-07-20 12:00:00 31.8 10 Sudoeste 25 Sudoeste 0 -- -- 27
2019-07-20 11:00:00 29.8 13 Sur 27 Sur 0 -- -- 31
2019-07-20 10:00:00 27.2 16 Sur 30 Sur 0 -- -- 35
2019-07-20 09:00:00 24.4 17 Sur 27 Sur 0 -- -- 42
2019-07-20 08:00:00 21.4 7 Sur 19 Sur 0 -- -- 50
2019-07-20 07:00:00 21.9 13 Sur 26 Sudoeste 0 -- -- 47
2019-07-20 06:00:00 22.3 19 Sur 30 Sur 0 -- -- 46
2019-07-20 05:00:00 23.3 22 Sur 30 Sur 0 -- -- 42
2019-07-20 04:00:00 23.6 18 Sur 27 Sur 0 -- -- 43
2019-07-20 03:00:00 23.3 13 Sur 24 Sur 0 -- -- 41
2019-07-20 02:00:00 22.7 7 Sur 17 Sudeste 0 -- -- 40
2019-07-20 01:00:00 24 9 Sudeste 21 Este 0 -- -- 39
2019-07-20 00:00:00 25 13 Sudeste 27 Este 0 -- -- 37
2019-07-19 23:00:00 27 15 Sudeste 25 Este 0 -- -- 34
2019-07-19 22:00:00 29.3 12 Sudeste 26 Sudeste 0 -- -- 29
2019-07-19 21:00:00 34.2 5 Este 12 Sur 0 -- -- 20
2019-07-19 20:00:00 37.1 4 Oeste 21 Oeste 0 -- -- 17
2019-07-19 19:00:00 36.8 5 Sudeste 22 Oeste 0 -- -- 18
2019-07-19 18:00:00 36.6 15 Oeste 28 Sudoeste 0 -- -- 18
2019-07-19 17:00:00 36.9 14 Sudoeste 27 Sudoeste 0 -- -- 17
2019-07-19 16:00:00 34.7 11 Nordeste 26 Sur 0 -- -- 20
2019-07-19 15:00:00 35.7 8 Sudoeste 24 Sudoeste 0 -- -- 20
2019-07-19 14:00:00 35.3 10 Sur 23 Sur 0 -- -- 21
2019-07-19 13:00:00 33.9 7 Sudeste 20 Sudoeste 0 -- -- 23
2019-07-19 12:00:00 32.4 7 Sur 18 Sur 0 -- -- 27
2019-07-19 11:00:00 29.8 10 Sudoeste 21 Sudoeste 0 -- -- 32
2019-07-19 10:00:00 26.8 11 Sudoeste 24 Sur 0 -- -- 40
2019-07-19 09:00:00 24.5 13 Sur 22 Sur 0 -- -- 45
2019-07-19 08:00:00 21.8 10 Sur 15 Sur 0 -- -- 48
2019-07-19 07:00:00 20.4 6 Sur 17 Sur 0 -- -- 48
2019-07-19 06:00:00 20.8 10 Sur 18 Sur 0 -- -- 46
2019-07-19 05:00:00 21.8 9 Sur 24 Sur 0 -- -- 40
2019-07-19 04:00:00 22.2 13 Sur 24 Sur 0 -- -- 40
2019-07-19 03:00:00 22.2 8 Sur 17 Sur 0 -- -- 47
2019-07-19 02:00:00 23.5 5 Sur 16 Sur 0 -- -- 45
2019-07-19 01:00:00 23.7 7 Sudeste 15 Sudeste 0 -- -- 45
2019-07-19 00:00:00 25.3 10 Sudeste 23 Este 0 -- -- 42